sensor_id;sensor_type;location;lat;lon;timestamp;pressure;altitude;pressure_sealevel;temperature;humidity
63439;BME280;49567;48.958;8.294;2023-05-17T00:02:16;100840.25;;;13.40;50.40
63439;BME280;49567;48.958;8.294;2023-05-17T00:04:42;100839.13;;;13.36;50.77
63439;BME280;49567;48.958;8.294;2023-05-17T00:07:08;100832.38;;;13.44;50.68
63439;BME280;49567;48.958;8.294;2023-05-17T00:09:34;100837.59;;;13.45;50.61
63439;BME280;49567;48.958;8.294;2023-05-17T00:12:00;100834.56;;;13.42;50.65
63439;BME280;49567;48.958;8.294;2023-05-17T00:14:25;100832.28;;;13.34;51.13
63439;BME280;49567;48.958;8.294;2023-05-17T00:16:50;100833.03;;;13.29;51.07
63439;BME280;49567;48.958;8.294;2023-05-17T00:19:16;100830.56;;;13.28;51.38
63439;BME280;49567;48.958;8.294;2023-05-17T00:21:42;100837.72;;;13.34;51.35
63439;BME280;49567;48.958;8.294;2023-05-17T00:24:07;100848.69;;;13.39;51.07
63439;BME280;49567;48.958;8.294;2023-05-17T00:26:33;100849.50;;;13.39;51.35
63439;BME280;49567;48.958;8.294;2023-05-17T00:28:58;100850.53;;;13.33;51.42
63439;BME280;49567;48.958;8.294;2023-05-17T00:31:23;100851.84;;;13.31;51.48
63439;BME280;49567;48.958;8.294;2023-05-17T00:33:48;100856.41;;;13.25;51.68
63439;BME280;49567;48.958;8.294;2023-05-17T00:36:14;100859.63;;;13.22;51.87
63439;BME280;49567;48.958;8.294;2023-05-17T00:38:39;100866.91;;;13.17;52.26
63439;BME280;49567;48.958;8.294;2023-05-17T00:41:04;100857.16;;;13.21;52.35
63439;BME280;49567;48.958;8.294;2023-05-17T00:43:30;100864.88;;;13.29;52.03
63439;BME280;49567;48.958;8.294;2023-05-17T00:45:55;100861.34;;;13.28;52.36
63439;BME280;49567;48.958;8.294;2023-05-17T00:48:20;100855.19;;;13.16;52.43
63439;BME280;49567;48.958;8.294;2023-05-17T00:50:49;100867.91;;;13.11;52.58
63439;BME280;49567;48.958;8.294;2023-05-17T00:53:15;100867.66;;;13.12;52.76
63439;BME280;49567;48.958;8.294;2023-05-17T00:55:43;100873.97;;;13.18;52.53
63439;BME280;49567;48.958;8.294;2023-05-17T00:58:10;100870.44;;;13.17;52.38
63439;BME280;49567;48.958;8.294;2023-05-17T01:00:36;100870.69;;;13.16;52.54
63439;BME280;49567;48.958;8.294;2023-05-17T01:03:01;100875.59;;;13.14;52.92
63439;BME280;49567;48.958;8.294;2023-05-17T01:05:27;100866.81;;;13.12;52.95
63439;BME280;49567;48.958;8.294;2023-05-17T01:07:52;100869.81;;;13.10;53.34
63439;BME280;49567;48.958;8.294;2023-05-17T01:10:18;100876.66;;;13.13;53.23
63439;BME280;49567;48.958;8.294;2023-05-17T01:13:02;100876.47;;;13.02;53.70
63439;BME280;49567;48.958;8.294;2023-05-17T01:15:32;100873.47;;;13.04;53.56
63439;BME280;49567;48.958;8.294;2023-05-17T01:20:36;100881.59;;;12.99;53.84
63439;BME280;49567;48.958;8.294;2023-05-17T01:23:22;100881.22;;;12.90;54.05
63439;BME280;49567;48.958;8.294;2023-05-17T01:25:53;100884.25;;;12.94;54.04
63439;BME280;49567;48.958;8.294;2023-05-17T01:28:22;100889.09;;;12.92;53.91
63439;BME280;49567;48.958;8.294;2023-05-17T01:30:50;100889.38;;;12.90;53.89
63439;BME280;49567;48.958;8.294;2023-05-17T01:33:17;100889.53;;;12.84;54.14
63439;BME280;49567;48.958;8.294;2023-05-17T01:35:43;100893.88;;;12.85;54.25
63439;BME280;49567;48.958;8.294;2023-05-17T01:38:08;100896.09;;;12.88;53.99
63439;BME280;49567;48.958;8.294;2023-05-17T01:40:35;100900.97;;;12.86;54.39
63439;BME280;49567;48.958;8.294;2023-05-17T01:43:32;100905.34;;;12.87;54.28
63439;BME280;49567;48.958;8.294;2023-05-17T01:48:51;100909.88;;;12.81;54.87
63439;BME280;49567;48.958;8.294;2023-05-17T01:51:22;100914.97;;;12.78;55.04
63439;BME280;49567;48.958;8.294;2023-05-17T01:53:56;100914.41;;;12.76;55.10
63439;BME280;49567;48.958;8.294;2023-05-17T01:56:27;100915.47;;;12.75;55.31
63439;BME280;49567;48.958;8.294;2023-05-17T01:58:56;100906.53;;;12.74;55.26
63439;BME280;49567;48.958;8.294;2023-05-17T02:01:23;100914.91;;;12.73;55.71
63439;BME280;49567;48.958;8.294;2023-05-17T02:03:50;100904.38;;;12.76;55.44
63439;BME280;49567;48.958;8.294;2023-05-17T02:06:16;100919.03;;;12.75;55.62
63439;BME280;49567;48.958;8.294;2023-05-17T02:08:42;100913.34;;;12.77;55.85
63439;BME280;49567;48.958;8.294;2023-05-17T02:11:07;100918.19;;;12.75;55.90
63439;BME280;49567;48.958;8.294;2023-05-17T02:13:32;100917.47;;;12.63;55.86
63439;BME280;49567;48.958;8.294;2023-05-17T02:16:02;100927.13;;;12.54;56.28
63439;BME280;49567;48.958;8.294;2023-05-17T02:18:28;100924.22;;;12.43;56.29
63439;BME280;49567;48.958;8.294;2023-05-17T02:20:53;100922.72;;;12.36;56.68
63439;BME280;49567;48.958;8.294;2023-05-17T02:23:19;100917.22;;;12.31;56.92
63439;BME280;49567;48.958;8.294;2023-05-17T02:25:44;100929.06;;;12.25;57.04
63439;BME280;49567;48.958;8.294;2023-05-17T02:28:09;100923.78;;;12.18;57.45
63439;BME280;49567;48.958;8.294;2023-05-17T02:30:36;100919.78;;;12.09;57.84
63439;BME280;49567;48.958;8.294;2023-05-17T02:33:04;100930.91;;;12.08;57.67
63439;BME280;49567;48.958;8.294;2023-05-17T02:35:30;100917.47;;;12.01;57.60
63439;BME280;49567;48.958;8.294;2023-05-17T02:37:55;100930.22;;;12.01;57.82
63439;BME280;49567;48.958;8.294;2023-05-17T02:40:20;100929.97;;;12.02;57.53
63439;BME280;49567;48.958;8.294;2023-05-17T02:42:46;100928.09;;;12.03;57.68
63439;BME280;49567;48.958;8.294;2023-05-17T02:45:11;100935.41;;;12.02;57.50
63439;BME280;49567;48.958;8.294;2023-05-17T02:47:36;100936.22;;;12.03;57.29
63439;BME280;49567;48.958;8.294;2023-05-17T02:50:02;100935.19;;;12.04;57.60
63439;BME280;49567;48.958;8.294;2023-05-17T02:52:27;100949.25;;;12.01;57.54
63439;BME280;49567;48.958;8.294;2023-05-17T02:54:52;100938.03;;;11.97;57.77
63439;BME280;49567;48.958;8.294;2023-05-17T02:57:17;100941.25;;;11.94;57.68
63439;BME280;49567;48.958;8.294;2023-05-17T02:59:43;100940.69;;;11.92;58.01
63439;BME280;49567;48.958;8.294;2023-05-17T03:02:08;100944.44;;;11.91;58.33
63439;BME280;49567;48.958;8.294;2023-05-17T03:04:33;100938.41;;;11.89;58.25
63439;BME280;49567;48.958;8.294;2023-05-17T03:06:59;100946.00;;;11.87;58.37
63439;BME280;49567;48.958;8.294;2023-05-17T03:09:24;100947.66;;;11.88;58.63
63439;BME280;49567;48.958;8.294;2023-05-17T03:11:50;100941.63;;;11.86;58.50
63439;BME280;49567;48.958;8.294;2023-05-17T03:14:15;100934.56;;;11.85;58.47
63439;BME280;49567;48.958;8.294;2023-05-17T03:16:40;100940.47;;;11.82;58.77
63439;BME280;49567;48.958;8.294;2023-05-17T03:19:05;100936.94;;;11.81;58.53
63439;BME280;49567;48.958;8.294;2023-05-17T03:21:31;100938.81;;;11.81;58.60
63439;BME280;49567;48.958;8.294;2023-05-17T03:23:56;100952.19;;;11.71;58.57
63439;BME280;49567;48.958;8.294;2023-05-17T03:26:22;100957.72;;;11.64;58.85
63439;BME280;49567;48.958;8.294;2023-05-17T03:28:48;100952.63;;;11.68;58.76
63439;BME280;49567;48.958;8.294;2023-05-17T03:31:13;100946.59;;;11.66;59.03
63439;BME280;49567;48.958;8.294;2023-05-17T03:33:39;100955.56;;;11.66;59.00
63439;BME280;49567;48.958;8.294;2023-05-17T03:36:04;100951.81;;;11.67;58.86
63439;BME280;49567;48.958;8.294;2023-05-17T03:38:29;100955.22;;;11.63;59.28
63439;BME280;49567;48.958;8.294;2023-05-17T03:40:55;100960.44;;;11.64;59.36
63439;BME280;49567;48.958;8.294;2023-05-17T03:43:20;100957.00;;;11.69;59.12
63439;BME280;49567;48.958;8.294;2023-05-17T03:45:45;100957.59;;;11.71;59.22
63439;BME280;49567;48.958;8.294;2023-05-17T03:48:11;100962.78;;;11.72;59.60
63439;BME280;49567;48.958;8.294;2023-05-17T03:50:38;100970.13;;;11.72;59.54
63439;BME280;49567;48.958;8.294;2023-05-17T03:53:04;100969.31;;;11.71;59.53
63439;BME280;49567;48.958;8.294;2023-05-17T03:55:30;100965.94;;;11.69;59.55
63439;BME280;49567;48.958;8.294;2023-05-17T03:57:55;100972.47;;;11.68;59.95
63439;BME280;49567;48.958;8.294;2023-05-17T04:00:20;100974.34;;;11.68;60.18
63439;BME280;49567;48.958;8.294;2023-05-17T04:02:50;100974.56;;;11.66;60.12
63439;BME280;49567;48.958;8.294;2023-05-17T04:05:15;100980.75;;;11.50;60.08
63439;BME280;49567;48.958;8.294;2023-05-17T04:07:41;100975.69;;;11.42;60.57
63439;BME280;49567;48.958;8.294;2023-05-17T04:10:06;100978.63;;;11.52;60.00
63439;BME280;49567;48.958;8.294;2023-05-17T04:12:32;100978.50;;;11.59;60.44
63439;BME280;49567;48.958;8.294;2023-05-17T04:14:57;100988.63;;;11.63;60.44
63439;BME280;49567;48.958;8.294;2023-05-17T04:17:23;100999.00;;;11.66;60.43
63439;BME280;49567;48.958;8.294;2023-05-17T04:19:48;100999.84;;;11.67;60.36
63439;BME280;49567;48.958;8.294;2023-05-17T04:22:13;100995.81;;;11.69;60.23
63439;BME280;49567;48.958;8.294;2023-05-17T04:24:39;100995.97;;;11.74;60.13
63439;BME280;49567;48.958;8.294;2023-05-17T04:27:04;101000.91;;;11.77;60.01
63439;BME280;49567;48.958;8.294;2023-05-17T04:29:31;101001.50;;;11.79;60.19
63439;BME280;49567;48.958;8.294;2023-05-17T04:31:56;101002.94;;;11.82;60.12
63439;BME280;49567;48.958;8.294;2023-05-17T04:34:22;101003.72;;;11.82;60.15
63439;BME280;49567;48.958;8.294;2023-05-17T04:36:48;101010.25;;;11.81;60.25
63439;BME280;49567;48.958;8.294;2023-05-17T04:39:13;101005.53;;;11.77;60.47
63439;BME280;49567;48.958;8.294;2023-05-17T04:41:38;101018.75;;;11.73;60.77
63439;BME280;49567;48.958;8.294;2023-05-17T04:44:04;101016.88;;;11.74;61.03
63439;BME280;49567;48.958;8.294;2023-05-17T04:46:31;101019.34;;;11.75;61.01
63439;BME280;49567;48.958;8.294;2023-05-17T04:48:56;101022.88;;;11.76;61.31
63439;BME280;49567;48.958;8.294;2023-05-17T04:54:58;101033.25;;;11.79;61.42
63439;BME280;49567;48.958;8.294;2023-05-17T04:57:24;101035.16;;;11.78;61.58
63439;BME280;49567;48.958;8.294;2023-05-17T04:59:49;101037.63;;;11.80;61.65
63439;BME280;49567;48.958;8.294;2023-05-17T05:02:14;101034.69;;;11.81;61.98
63439;BME280;49567;48.958;8.294;2023-05-17T05:04:40;101046.13;;;11.83;62.16
63439;BME280;49567;48.958;8.294;2023-05-17T05:07:05;101039.63;;;11.84;62.42
63439;BME280;49567;48.958;8.294;2023-05-17T05:09:30;101042.94;;;11.86;62.48
63439;BME280;49567;48.958;8.294;2023-05-17T05:11:56;101041.38;;;11.90;62.42
63439;BME280;49567;48.958;8.294;2023-05-17T05:14:21;101048.00;;;11.94;62.46
63439;BME280;49567;48.958;8.294;2023-05-17T05:16:46;101049.19;;;11.99;62.48
63439;BME280;49567;48.958;8.294;2023-05-17T05:19:11;101050.31;;;12.03;62.12
63439;BME280;49567;48.958;8.294;2023-05-17T05:21:37;101050.09;;;12.04;61.91
63439;BME280;49567;48.958;8.294;2023-05-17T05:24:05;101056.94;;;12.07;61.93
63439;BME280;49567;48.958;8.294;2023-05-17T05:26:30;101059.16;;;12.10;62.04
63439;BME280;49567;48.958;8.294;2023-05-17T05:28:56;101065.78;;;12.14;62.03
63439;BME280;49567;48.958;8.294;2023-05-17T05:31:21;101058.22;;;12.16;61.83
63439;BME280;49567;48.958;8.294;2023-05-17T05:33:46;101063.16;;;12.19;62.02
63439;BME280;49567;48.958;8.294;2023-05-17T05:36:11;101076.03;;;12.23;62.15
63439;BME280;49567;48.958;8.294;2023-05-17T05:38:37;101073.66;;;12.27;62.41
63439;BME280;49567;48.958;8.294;2023-05-17T05:41:02;101075.91;;;12.30;62.53
63439;BME280;49567;48.958;8.294;2023-05-17T05:43:27;101074.22;;;12.29;62.25
63439;BME280;49567;48.958;8.294;2023-05-17T05:45:53;101074.22;;;12.29;62.25
63439;BME280;49567;48.958;8.294;2023-05-17T05:48:18;101074.94;;;12.36;61.87
63439;BME280;49567;48.958;8.294;2023-05-17T05:50:43;101080.97;;;12.38;61.99
63439;BME280;49567;48.958;8.294;2023-05-17T05:53:09;101085.16;;;12.45;61.67
63439;BME280;49567;48.958;8.294;2023-05-17T05:55:38;101086.78;;;12.58;61.42
63439;BME280;49567;48.958;8.294;2023-05-17T05:58:04;101082.28;;;12.64;61.20
63439;BME280;49567;48.958;8.294;2023-05-17T06:00:29;101082.22;;;12.75;60.59
63439;BME280;49567;48.958;8.294;2023-05-17T06:02:54;101089.22;;;12.88;60.21
63439;BME280;49567;48.958;8.294;2023-05-17T06:05:21;101099.16;;;12.94;60.30
63439;BME280;49567;48.958;8.294;2023-05-17T06:07:46;101092.63;;;12.95;60.00
63439;BME280;49567;48.958;8.294;2023-05-17T06:10:12;101097.00;;;12.96;60.09
63439;BME280;49567;48.958;8.294;2023-05-17T06:12:37;101095.31;;;13.07;59.85
63439;BME280;49567;48.958;8.294;2023-05-17T06:15:02;101096.31;;;13.17;59.36
63439;BME280;49567;48.958;8.294;2023-05-17T06:17:28;101104.56;;;13.22;59.13
63439;BME280;49567;48.958;8.294;2023-05-17T06:19:53;101106.41;;;13.33;59.28
63439;BME280;49567;48.958;8.294;2023-05-17T06:22:19;101104.97;;;13.31;59.04
63439;BME280;49567;48.958;8.294;2023-05-17T06:24:44;101099.31;;;13.32;58.97
63439;BME280;49567;48.958;8.294;2023-05-17T06:27:09;101099.72;;;13.41;58.86
63439;BME280;49567;48.958;8.294;2023-05-17T06:29:35;101107.53;;;13.54;58.37
63439;BME280;49567;48.958;8.294;2023-05-17T06:32:00;101104.91;;;13.59;58.22
63439;BME280;49567;48.958;8.294;2023-05-17T06:34:25;101110.91;;;13.61;58.08
63439;BME280;49567;48.958;8.294;2023-05-17T06:36:51;101104.31;;;13.57;57.46
63439;BME280;49567;48.958;8.294;2023-05-17T06:39:16;101110.53;;;13.52;56.94
63439;BME280;49567;48.958;8.294;2023-05-17T06:41:41;101120.03;;;13.33;56.95
63439;BME280;49567;48.958;8.294;2023-05-17T06:44:06;101124.88;;;13.31;56.93
63439;BME280;49567;48.958;8.294;2023-05-17T06:46:32;101108.03;;;13.34;56.67
63439;BME280;49567;48.958;8.294;2023-05-17T06:48:57;101118.84;;;13.29;56.35
63439;BME280;49567;48.958;8.294;2023-05-17T06:51:22;101120.50;;;13.30;56.48
63439;BME280;49567;48.958;8.294;2023-05-17T06:53:48;101122.63;;;13.28;56.79
63439;BME280;49567;48.958;8.294;2023-05-17T06:56:14;101117.13;;;13.23;56.72
63439;BME280;49567;48.958;8.294;2023-05-17T06:58:40;101123.97;;;13.26;57.18
63439;BME280;49567;48.958;8.294;2023-05-17T07:01:07;101128.41;;;13.32;56.57
63439;BME280;49567;48.958;8.294;2023-05-17T07:03:33;101127.69;;;13.36;57.01
63439;BME280;49567;48.958;8.294;2023-05-17T07:05:59;101127.75;;;13.41;56.64
63439;BME280;49567;48.958;8.294;2023-05-17T07:08:25;101128.34;;;13.43;56.61
63439;BME280;49567;48.958;8.294;2023-05-17T07:10:51;101130.31;;;13.48;56.22
63439;BME280;49567;48.958;8.294;2023-05-17T07:13:16;101132.38;;;13.58;56.38
63439;BME280;49567;48.958;8.294;2023-05-17T07:15:42;101134.19;;;13.69;55.77
63439;BME280;49567;48.958;8.294;2023-05-17T07:18:07;101132.78;;;13.83;55.37
63439;BME280;49567;48.958;8.294;2023-05-17T07:20:32;101127.19;;;13.73;54.79
63439;BME280;49567;48.958;8.294;2023-05-17T07:22:58;101145.00;;;13.64;54.50
63439;BME280;49567;48.958;8.294;2023-05-17T07:25:23;101134.94;;;13.64;54.05
63439;BME280;49567;48.958;8.294;2023-05-17T07:27:49;101137.97;;;13.68;54.05
63439;BME280;49567;48.958;8.294;2023-05-17T07:33:33;101136.75;;;13.75;53.56
63439;BME280;49567;48.958;8.294;2023-05-17T07:35:59;101142.03;;;13.82;52.96
63439;BME280;49567;48.958;8.294;2023-05-17T07:38:24;101135.81;;;13.86;53.44
63439;BME280;49567;48.958;8.294;2023-05-17T07:40:49;101133.56;;;14.00;53.05
63439;BME280;49567;48.958;8.294;2023-05-17T07:43:15;101134.28;;;14.12;52.49
63439;BME280;49567;48.958;8.294;2023-05-17T07:45:42;101139.53;;;14.35;52.49
63439;BME280;49567;48.958;8.294;2023-05-17T07:48:07;101142.22;;;14.52;51.84
63439;BME280;49567;48.958;8.294;2023-05-17T07:50:32;101131.91;;;14.59;51.09
63439;BME280;49567;48.958;8.294;2023-05-17T07:52:58;101139.13;;;14.70;51.28
63439;BME280;49567;48.958;8.294;2023-05-17T07:55:23;101137.09;;;14.82;50.54
63439;BME280;49567;48.958;8.294;2023-05-17T07:57:48;101134.44;;;14.87;51.11
63439;BME280;49567;48.958;8.294;2023-05-17T08:00:14;101137.72;;;14.89;50.77
63439;BME280;49567;48.958;8.294;2023-05-17T08:02:40;101141.03;;;14.91;50.76
63439;BME280;49567;48.958;8.294;2023-05-17T08:05:05;101141.94;;;15.02;50.49
63439;BME280;49567;48.958;8.294;2023-05-17T08:07:32;101145.25;;;15.04;50.14
63439;BME280;49567;48.958;8.294;2023-05-17T08:09:57;101135.59;;;14.96;49.38
63439;BME280;49567;48.958;8.294;2023-05-17T08:12:23;101146.72;;;14.90;49.61
63439;BME280;49567;48.958;8.294;2023-05-17T08:14:48;101142.81;;;14.81;49.42
63439;BME280;49567;48.958;8.294;2023-05-17T08:17:13;101136.72;;;14.74;49.88
63439;BME280;49567;48.958;8.294;2023-05-17T08:19:38;101142.69;;;14.71;50.35
63439;BME280;49567;48.958;8.294;2023-05-17T08:22:04;101142.06;;;14.64;50.31
63439;BME280;49567;48.958;8.294;2023-05-17T08:24:29;101138.25;;;14.65;49.81
63439;BME280;49567;48.958;8.294;2023-05-17T08:26:54;101139.66;;;14.67;50.02
63439;BME280;49567;48.958;8.294;2023-05-17T08:29:20;101145.41;;;14.49;50.18
63439;BME280;49567;48.958;8.294;2023-05-17T08:31:45;101141.69;;;14.33;50.47
63439;BME280;49567;48.958;8.294;2023-05-17T08:34:11;101138.03;;;14.28;50.91
63439;BME280;49567;48.958;8.294;2023-05-17T08:36:36;101135.63;;;14.31;50.85
63439;BME280;49567;48.958;8.294;2023-05-17T08:39:02;101136.13;;;14.45;51.05
63439;BME280;49567;48.958;8.294;2023-05-17T08:41:28;101132.53;;;14.88;50.07
63439;BME280;49567;48.958;8.294;2023-05-17T08:43:54;101133.38;;;15.20;48.67
63439;BME280;49567;48.958;8.294;2023-05-17T08:46:21;101124.38;;;15.51;48.23
63439;BME280;49567;48.958;8.294;2023-05-17T08:48:52;101123.53;;;15.83;47.37
63439;BME280;49567;48.958;8.294;2023-05-17T08:51:20;101122.38;;;16.16;46.91
63439;BME280;49567;48.958;8.294;2023-05-17T08:53:47;101124.13;;;16.42;46.27
63439;BME280;49567;48.958;8.294;2023-05-17T08:56:15;101126.72;;;16.69;45.63
63439;BME280;49567;48.958;8.294;2023-05-17T08:58:42;101119.09;;;16.81;45.05
63439;BME280;49567;48.958;8.294;2023-05-17T09:01:11;101118.28;;;16.90;45.07
63439;BME280;49567;48.958;8.294;2023-05-17T09:03:39;101124.59;;;16.91;44.65
63439;BME280;49567;48.958;8.294;2023-05-17T09:06:06;101124.34;;;17.07;44.81
63439;BME280;49567;48.958;8.294;2023-05-17T09:08:35;101118.06;;;17.42;43.99
63439;BME280;49567;48.958;8.294;2023-05-17T09:11:00;101120.00;;;17.72;43.33
63439;BME280;49567;48.958;8.294;2023-05-17T09:13:26;101116.13;;;17.88;43.10
63439;BME280;49567;48.958;8.294;2023-05-17T09:15:51;101122.19;;;17.70;43.49
63439;BME280;49567;48.958;8.294;2023-05-17T09:18:18;101114.78;;;17.35;44.11
63439;BME280;49567;48.958;8.294;2023-05-17T09:20:48;101116.94;;;17.03;44.53
63439;BME280;49567;48.958;8.294;2023-05-17T09:23:18;101123.75;;;16.90;44.59
63439;BME280;49567;48.958;8.294;2023-05-17T09:25:48;101128.59;;;16.63;44.50
63439;BME280;49567;48.958;8.294;2023-05-17T09:28:13;101126.81;;;16.37;44.30
63439;BME280;49567;48.958;8.294;2023-05-17T09:30:39;101129.03;;;16.35;44.32
63439;BME280;49567;48.958;8.294;2023-05-17T09:35:32;101122.72;;;17.17;43.32
63439;BME280;49567;48.958;8.294;2023-05-17T09:38:09;101135.06;;;17.49;42.96
63439;BME280;49567;48.958;8.294;2023-05-17T09:40:45;101129.81;;;17.23;43.41
63439;BME280;49567;48.958;8.294;2023-05-17T09:43:12;101124.59;;;16.96;43.74
63439;BME280;49567;48.958;8.294;2023-05-17T09:45:38;101130.28;;;16.69;44.41
63439;BME280;49567;48.958;8.294;2023-05-17T09:48:15;101131.53;;;16.46;44.43
63439;BME280;49567;48.958;8.294;2023-05-17T09:50:48;101138.06;;;16.35;45.12
63439;BME280;49567;48.958;8.294;2023-05-17T09:53:49;101138.34;;;17.36;44.80
63439;BME280;49567;48.958;8.294;2023-05-17T09:56:19;101129.81;;;18.78;41.47
63439;BME280;49567;48.958;8.294;2023-05-17T09:58:48;101128.16;;;18.18;42.12
63439;BME280;49567;48.958;8.294;2023-05-17T10:01:14;101128.47;;;17.50;43.18
63439;BME280;49567;48.958;8.294;2023-05-17T10:03:39;101128.19;;;17.01;43.89
63439;BME280;49567;48.958;8.294;2023-05-17T10:06:06;101139.88;;;16.72;44.73
63439;BME280;49567;48.958;8.294;2023-05-17T10:08:32;101144.41;;;16.51;45.17
63439;BME280;49567;48.958;8.294;2023-05-17T10:11:08;101137.28;;;16.45;45.44
63439;BME280;49567;48.958;8.294;2023-05-17T10:13:46;101132.81;;;16.29;45.68
63439;BME280;49567;48.958;8.294;2023-05-17T10:16:13;101128.19;;;16.29;45.72
63439;BME280;49567;48.958;8.294;2023-05-17T10:18:39;101130.94;;;16.34;45.52
63439;BME280;49567;48.958;8.294;2023-05-17T10:21:06;101127.22;;;16.60;45.38
63439;BME280;49567;48.958;8.294;2023-05-17T10:23:32;101129.75;;;16.72;45.14
63439;BME280;49567;48.958;8.294;2023-05-17T10:25:58;101132.75;;;16.66;45.31
63439;BME280;49567;48.958;8.294;2023-05-17T10:28:26;101126.44;;;16.65;45.48
63439;BME280;49567;48.958;8.294;2023-05-17T10:30:53;101126.69;;;16.64;45.46
63439;BME280;49567;48.958;8.294;2023-05-17T10:33:19;101123.59;;;16.50;44.93
63439;BME280;49567;48.958;8.294;2023-05-17T10:35:46;101128.00;;;16.51;45.04
63439;BME280;49567;48.958;8.294;2023-05-17T10:38:13;101133.81;;;16.59;45.31
63439;BME280;49567;48.958;8.294;2023-05-17T10:40:39;101130.28;;;16.69;45.16
63439;BME280;49567;48.958;8.294;2023-05-17T10:43:07;101125.94;;;16.78;45.05
63439;BME280;49567;48.958;8.294;2023-05-17T10:45:35;101136.88;;;16.83;44.79
63439;BME280;49567;48.958;8.294;2023-05-17T10:48:04;101136.34;;;16.81;44.79
63439;BME280;49567;48.958;8.294;2023-05-17T10:50:29;101137.72;;;16.84;44.86
63439;BME280;49567;48.958;8.294;2023-05-17T10:52:57;101139.38;;;16.95;44.99
63439;BME280;49567;48.958;8.294;2023-05-17T10:55:35;101139.38;;;17.00;44.82
63439;BME280;49567;48.958;8.294;2023-05-17T10:58:20;101150.59;;;16.88;44.72
63439;BME280;49567;48.958;8.294;2023-05-17T11:00:47;101142.59;;;16.77;45.07
63439;BME280;49567;48.958;8.294;2023-05-17T11:03:16;101146.16;;;16.72;45.14
63439;BME280;49567;48.958;8.294;2023-05-17T11:05:43;101140.69;;;16.72;45.01
63439;BME280;49567;48.958;8.294;2023-05-17T11:08:16;101137.69;;;16.74;44.83
63439;BME280;49567;48.958;8.294;2023-05-17T11:11:10;101144.50;;;16.66;44.79
63439;BME280;49567;48.958;8.294;2023-05-17T11:13:45;101147.22;;;16.61;45.18
63439;BME280;49567;48.958;8.294;2023-05-17T11:16:14;101143.66;;;16.55;45.18
63439;BME280;49567;48.958;8.294;2023-05-17T11:18:51;101141.38;;;16.47;45.25
63439;BME280;49567;48.958;8.294;2023-05-17T11:21:18;101147.97;;;16.46;45.18
63439;BME280;49567;48.958;8.294;2023-05-17T11:23:44;101140.84;;;16.50;45.06
63439;BME280;49567;48.958;8.294;2023-05-17T11:28:43;101138.69;;;16.52;44.90
63439;BME280;49567;48.958;8.294;2023-05-17T11:31:08;101135.13;;;16.52;44.32
63439;BME280;49567;48.958;8.294;2023-05-17T11:33:52;101125.81;;;16.53;44.30
63439;BME280;49567;48.958;8.294;2023-05-17T11:36:21;101133.00;;;16.59;44.21
63439;BME280;49567;48.958;8.294;2023-05-17T11:38:48;101128.91;;;16.72;44.11
63439;BME280;49567;48.958;8.294;2023-05-17T11:41:19;101127.03;;;16.87;43.74
63439;BME280;49567;48.958;8.294;2023-05-17T11:43:46;101121.03;;;17.00;42.96
63439;BME280;49567;48.958;8.294;2023-05-17T11:46:19;101121.34;;;17.19;42.81
63439;BME280;49567;48.958;8.294;2023-05-17T11:48:45;101121.38;;;17.44;42.13
63439;BME280;49567;48.958;8.294;2023-05-17T11:51:14;101124.09;;;17.49;41.63
63439;BME280;49567;48.958;8.294;2023-05-17T11:53:42;101117.53;;;17.40;41.54
63439;BME280;49567;48.958;8.294;2023-05-17T11:56:08;101120.78;;;17.32;41.29
63439;BME280;49567;48.958;8.294;2023-05-17T11:58:34;101124.09;;;17.24;41.44
63439;BME280;49567;48.958;8.294;2023-05-17T12:00:59;101126.00;;;17.24;41.63
63439;BME280;49567;48.958;8.294;2023-05-17T12:03:26;101130.41;;;17.25;41.19
63439;BME280;49567;48.958;8.294;2023-05-17T12:06:05;101118.34;;;17.16;40.93
63439;BME280;49567;48.958;8.294;2023-05-17T12:08:32;101129.03;;;17.12;40.56
63439;BME280;49567;48.958;8.294;2023-05-17T12:10:58;101115.88;;;17.14;40.93
63439;BME280;49567;48.958;8.294;2023-05-17T12:13:27;101117.50;;;17.15;40.81
63439;BME280;49567;48.958;8.294;2023-05-17T12:15:58;101107.66;;;17.29;40.76
63439;BME280;49567;48.958;8.294;2023-05-17T12:21:00;101110.97;;;17.67;40.41
63439;BME280;49567;48.958;8.294;2023-05-17T12:23:35;101110.41;;;17.70;40.36
63439;BME280;49567;48.958;8.294;2023-05-17T12:26:17;101109.59;;;17.74;40.33
63439;BME280;49567;48.958;8.294;2023-05-17T12:28:59;101107.09;;;17.83;39.90
63439;BME280;49567;48.958;8.294;2023-05-17T12:31:40;101111.75;;;17.87;40.12
63439;BME280;49567;48.958;8.294;2023-05-17T12:34:07;101121.63;;;17.73;40.03
63439;BME280;49567;48.958;8.294;2023-05-17T12:36:34;101114.25;;;17.58;39.96
63439;BME280;49567;48.958;8.294;2023-05-17T12:39:01;101117.81;;;17.44;39.71
63439;BME280;49567;48.958;8.294;2023-05-17T12:41:28;101107.94;;;17.38;40.02
63439;BME280;49567;48.958;8.294;2023-05-17T12:43:54;101105.19;;;17.43;39.78
63439;BME280;49567;48.958;8.294;2023-05-17T12:46:22;101100.81;;;17.62;39.28
63439;BME280;49567;48.958;8.294;2023-05-17T12:48:49;101099.66;;;17.98;39.00
63439;BME280;49567;48.958;8.294;2023-05-17T12:51:19;101106.13;;;18.33;37.86
63439;BME280;49567;48.958;8.294;2023-05-17T12:53:50;101111.88;;;18.31;37.91
63439;BME280;49567;48.958;8.294;2023-05-17T12:56:36;101104.50;;;18.27;38.06
63439;BME280;49567;48.958;8.294;2023-05-17T13:01:48;101109.72;;;18.18;38.32
63439;BME280;49567;48.958;8.294;2023-05-17T13:04:15;101098.50;;;18.14;38.09
63439;BME280;49567;48.958;8.294;2023-05-17T13:06:47;101090.03;;;18.11;37.93
63439;BME280;49567;48.958;8.294;2023-05-17T13:09:13;101083.66;;;18.26;37.58
63439;BME280;49567;48.958;8.294;2023-05-17T13:11:41;101089.06;;;18.46;37.17
63439;BME280;49567;48.958;8.294;2023-05-17T13:14:07;101092.81;;;18.70;36.51